logo
Search for airport 
image banner adimage banner adimage banner ad
image banner ad

LF97102 - Le Gosier

Located in Le Gosier, Guadeloupe

ICAO - , IATA -

Data provided by Airmate  

General information

Coordinates: N16°12'43" W61°30'48"
Elevation is feet MSL.
 
View others Airports in (unassigned)

Operational data

Special qualification required
Current time UTC:
Current local time:
Weather at : TFFR - Pointe A Pitre Le Raizet ( 6 km )
METAR: TFFR 291530Z AUTO 14014KT 9999 FEW042 28/20 Q1017
TAF: TAF TFFR 290500Z 2906/3006 VRB03KT 9999 SCT030 PROB40 TEMPO 2906/2915 3000 SHRA BKN020TCU BECMG 2911/2913 09012KT
View NOTAMs / SUP AIP / TFR affecting this airport [VIEW]
Communications frequencies: [VIEW]

Runways:

Airport contact information

Address: Le Gosier Guadeloupe

Satellite view of LF97102